• Join FlightAware (Why Join?)
  • Login
  • US Flag 
02:18AM EDT


 

Airport Tracker/Info


-or-


 

Live Flight TrackerFlight Track Log ✈ NVC102 ✈ 03-May-2012 ✈ CYHD - CYYB

Flight Track Log - Related Links

Times and Time Zones

All times are in EDT time to prevent confusion due to time zone crossing. See the NVC102 flight status page for this flight to view local times or setup timezone preferences in your user account.

Time Position Orientation Groundspeed Altitude Reporting Facility
EDT Latitude Longitude Course Direction KTS MPH feet Rate Location/Type
01:24PM 49.2360 -89.2487 310° West  Level FlightAware Approximate
01:25PM 49.2079 -89.1394 310° West  Level FlightAware Approximate
01:26PM 49.1797 -89.0301 309° West  Level FlightAware Approximate
01:27PM 49.1514 -88.9210 309° West  Level FlightAware Approximate
01:28PM 49.1230 -88.8120 309° West  Level FlightAware Approximate
01:29PM 49.0796 -88.6461 308° West  Level FlightAware Approximate
01:30PM 49.0359 -88.4806 308° West  Level FlightAware Approximate
01:31PM 48.9919 -88.3153 308° West  Level FlightAware Approximate
01:32PM 48.9477 -88.1503 307° West  Level FlightAware Approximate
01:33PM 48.9045 -87.9848 307° West  Level FlightAware Approximate
01:34PM 48.8610 -87.8197 307° West  Level FlightAware Approximate
01:35PM 48.8172 -87.6549 307° West  Level FlightAware Approximate
01:36PM 48.7733 -87.4903 306° West  Level FlightAware Approximate
01:37PM 48.7457 -87.3849 306° West  Level FlightAware Approximate
01:38PM 48.7179 -87.2797 306° West  Level FlightAware Approximate
01:39PM 48.6902 -87.1745 306° West  Level FlightAware Approximate
01:40PM 48.6623 -87.0695 306° West  Level FlightAware Approximate
01:41PM 48.6343 -86.9646 306° West  Level FlightAware Approximate
01:42PM 48.6064 -86.8607 306° West  Level FlightAware Approximate
01:43PM 48.5785 -86.7569 305° West  Level FlightAware Approximate
01:44PM 48.5505 -86.6532 305° West  Level FlightAware Approximate
01:45PM 48.5223 -86.5497 305° West  Level FlightAware Approximate
01:46PM 48.4941 -86.4462 305° West  Level FlightAware Approximate
01:47PM 48.4658 -86.3429 305° West  Level FlightAware Approximate
01:48PM 48.4374 -86.2396 305° West  Level FlightAware Approximate
01:49PM 48.4089 -86.1365 305° West  Level FlightAware Approximate
01:50PM 48.3803 -86.0336 305° West  Level FlightAware Approximate
01:51PM 48.3522 -85.9326 305° West  Level FlightAware Approximate
01:52PM 48.3240 -85.8318 305° West  Level FlightAware Approximate
01:53PM 48.2963 -85.7306 305° West  Level FlightAware Approximate
01:54PM 48.2686 -85.6296 304° West  Level FlightAware Approximate
01:55PM 48.2410 -85.5292 304° West  Level FlightAware Approximate
01:56PM 48.2133 -85.4290 304° West  Level FlightAware Approximate
01:57PM 48.1855 -85.3289 304° West  Level FlightAware Approximate
01:58PM 48.1576 -85.2289 304° West  Level FlightAware Approximate
01:59PM 48.1296 -85.1289 304° West  Level FlightAware Approximate
02:00PM 48.1015 -85.0291 304° West  Level FlightAware Approximate
02:01PM 48.0733 -84.9294 304° West  Level FlightAware Approximate
02:02PM 48.0451 -84.8298 304° West  Level FlightAware Approximate
02:03PM 48.0170 -84.7302 304° West  Level FlightAware Approximate
02:04PM 47.9888 -84.6307 304° West  Level FlightAware Approximate
02:05PM 47.9604 -84.5313 304° West  Level FlightAware Approximate
02:06PM 47.9320 -84.4321 304° West  Level FlightAware Approximate
02:07PM 47.9036 -84.3329 304° West  Level FlightAware Approximate
02:08PM 47.8750 -84.2338 304° West  Level FlightAware Approximate
02:09PM 47.8463 -84.1349 304° West  Level FlightAware Approximate
02:10PM 47.8176 -84.0360 304° West  Level FlightAware Approximate
02:11PM 47.7888 -83.9373 304° West  Level FlightAware Approximate
02:12PM 47.7599 -83.8387 304° West  Level FlightAware Approximate
02:12PM 51.3833 -93.5000 32° Northeast 230 265 8,000  Level Winnipeg Center
02:13PM 51.4333 -93.4500 14° North 280 322 10,300 1,980 Climbing Winnipeg Center
02:14PM 51.5167 -93.4167 14° North 300 345 12,000 840 Climbing Winnipeg Center
02:15PM 51.6000 -93.3833 26° Northeast 300 345 12,000  Level Winnipeg Center
02:16PM 51.6833 -93.3167 351° North 300 345 12,000  Level Winnipeg Center
02:17PM 51.7500 -93.3333 270° West 290 334 12,000  Level Winnipeg Center
02:18PM 51.7500 -93.4500 194° South 270 311 12,000  Level Winnipeg Center
02:19PM 51.6667 -93.4833 197° South 280 322 12,000  Level Winnipeg Center
02:20PM 51.6000 -93.5167 194° South 290 334 12,000  Level Winnipeg Center
02:21PM 51.5167 -93.5500 194° South 290 334 12,000  Level Winnipeg Center
02:22PM 51.4333 -93.5833 197° South 290 334 12,000  Level Winnipeg Center
02:23PM 51.3667 -93.6167 194° South 290 334 12,000  Level Winnipeg Center
02:24PM 51.2833 -93.6500 194° South 290 334 12,000  Level Winnipeg Center
02:25PM 51.2000 -93.6833 197° South 280 322 12,000  Level Winnipeg Center
02:26PM 51.1333 -93.7167 194° South 270 311 12,000  Level Winnipeg Center
02:27PM 51.0500 -93.7500 226° Southwest 270 311 12,000  Level Winnipeg Center
02:28PM 51.0000 -93.8333 270° West 260 299 12,000 -300 Level Winnipeg Center
02:29PM 51.0000 -93.9333 255° West 260 299 11,500 -780 Descending Winnipeg Center
02:30PM 50.9833 -94.0333 246° West 260 299 10,500 -1,020 Descending Winnipeg Center
02:31PM 50.9500 -94.1500 238° Southwest 250 288 9,500 -1,140 Descending Winnipeg Center
02:32PM 50.9167 -94.2333 259° West 260 299 8,300 -1,320 Descending Winnipeg Center
02:33PM 50.9000 -94.3667 255° West 260 299 6,900 -1,200 Descending Winnipeg Center
02:34PM 50.8833 -94.4667 360° North 270 311 6,000 -120 Descending Winnipeg Center
02:43PM 50.9500 -94.4667 77° East 240 276 5,900  Descending Winnipeg Center
02:45PM 50.9833 -94.2333 77° East 270 311 6,000  Climbing Winnipeg Center
02:46PM 51.0000 -94.1167 62° Northeast 270 311 6,000  Level Winnipeg Center
02:47PM 51.0333 -94.0167 79° East 270 311 6,000  Level Winnipeg Center
02:48PM 51.0500 -93.8833 90° East 270 311 6,000  Level Winnipeg Center
02:49PM 51.0500 -93.7667 105° East 270 311 6,000 600 Level Winnipeg Center
02:50PM 51.0333 -93.6667 112° Southeast 260 299 7,300 1,800 Climbing Winnipeg Center
02:51PM 51.0000 -93.5333 101° East 280 322 9,600 2,160 Climbing Winnipeg Center
02:52PM 50.9833 -93.4000 121° Southeast 300 345 11,700 2,100 Climbing Winnipeg Center
02:53PM 50.9333 -93.2667 114° Southeast 320 368 13,800 2,160 Climbing Winnipeg Center
02:54PM 50.9000 -93.1500 101° East 320 368 16,100 2,220 Climbing Winnipeg Center
02:55PM 50.8833 -93.0167 112° Southeast 330 380 18,300 2,100 Climbing Winnipeg Center
02:56PM 50.8500 -92.8833 118° Southeast 340 391 20,400 1,800 Climbing Winnipeg Center
02:57PM 50.8000 -92.7333 107° East 350 403 22,000 1,500 Climbing Winnipeg Center
02:58PM 50.7667 -92.5667 114° Southeast 360 414 23,500 1,320 Climbing Winnipeg Center
02:59PM 50.7333 -92.4500 113° Southeast 380 437 24,700 1,020 Climbing Winnipeg Center
03:00PM 50.6833 -92.2667 106° East 400 460 25,600 900 Climbing Winnipeg Center
03:01PM 50.6500 -92.0833 120° Southeast 420 483 26,600 1,020 Climbing Winnipeg Center
03:02PM 50.5833 -91.9000 106° East 430 495 27,700 900 Climbing Winnipeg Center
03:03PM 50.5500 -91.7167 118° Southeast 440 506 28,500 900 Climbing Winnipeg Center
03:04PM 50.5000 -91.5667 111° Southeast 440 506 29,500 900 Climbing Winnipeg Center
03:05PM 50.4500 -91.3667 113° Southeast 450 518 30,300 780 Climbing Winnipeg Center
03:06PM 50.4000 -91.1833 106° East 450 518 31,100 900 Climbing Winnipeg Center
03:07PM 50.3667 -91.0000 122° Southeast 450 518 32,100 900 Climbing Winnipeg Center
03:08PM 50.3000 -90.8333 111° Southeast 450 518 32,900 420 Climbing Winnipeg Center
03:09PM 50.2500 -90.6333 106° East 450 518 33,000  Climbing Winnipeg Center
03:10PM 50.2167 -90.4500 120° Southeast 470 541 33,000  Level Winnipeg Center
03:11PM 50.1500 -90.2667 117° Southeast 480 552 33,000  Level Winnipeg Center
03:12PM 50.0833 -90.0667 111° Southeast 480 552 33,000  Level Winnipeg Center
03:13PM 50.0333 -89.8667 115° Southeast 480 552 33,000  Level Winnipeg Center
03:14PM 49.9833 -89.7000 111° Southeast 480 552 33,000  Level Winnipeg Center
03:15PM 49.9333 -89.5000 122° Southeast 480 552 33,000  Level Winnipeg Center
03:16PM 49.8667 -89.3333 110° East 470 541 33,000  Level Winnipeg Center
03:17PM 49.8167 -89.1167 113° Southeast 470 541 33,000  Level Winnipeg Center
03:18PM 49.7667 -88.9333 113° Southeast 470 541 33,000  Level Winnipeg Center
03:19PM 49.7167 -88.7500 115° Southeast 480 552 33,000  Level Winnipeg Center
03:20PM 49.6667 -88.5833 117° Southeast 480 552 33,000  Level Winnipeg Center
03:21PM 49.6000 -88.3833 117° Southeast 490 564 33,000  Level Winnipeg Center
03:22PM 49.5333 -88.1833 111° Southeast 490 564 33,000  Level Winnipeg Center
03:23PM 49.4833 -87.9833 119° Southeast 490 564 33,000  Level Winnipeg Center
03:24PM 49.4167 -87.8000 115° Southeast 490 564 33,000  Level Winnipeg Center
03:25PM 49.3667 -87.6333 117° Southeast 490 564 33,000  Level Winnipeg Center
03:26PM 49.3000 -87.4333 115° Southeast 480 552 33,000  Level Winnipeg Center
03:27PM 49.2500 -87.2667 117° Southeast 480 552 33,000  Level Winnipeg Center
03:28PM 49.1833 -87.0667 107° East 470 541 33,000  Level Winnipeg Center
03:29PM 49.1500 -86.9000 115° Southeast 470 541 33,000  Level Winnipeg Center
03:30PM 49.1000 -86.7333 122° Southeast 470 541 33,000  Level Winnipeg Center
03:31PM 49.0167 -86.5333 115° Southeast 480 552 33,000  Level Winnipeg Center
03:32PM 48.9667 -86.3667 119° Southeast 470 541 33,000  Level Winnipeg Center
03:33PM 48.9000 -86.1833 114° Southeast 460 529 33,000  Level Winnipeg Center
03:34PM 48.8500 -86.0167 117° Southeast 460 529 33,000  Level Winnipeg Center
03:35PM 48.7833 -85.8167 114° Southeast 470 541 33,000  Level Winnipeg Center
03:36PM 48.7333 -85.6500 121° Southeast 470 541 33,000  Level Winnipeg Center
03:37PM 48.7000 -85.5667 114° Southeast 460 529 33,000  Level Toronto Center
03:38PM 48.6500 -85.4000 119° Southeast 460 529 33,000  Level Toronto Center
03:39PM 48.5833 -85.2167 112° Southeast 470 541 33,000  Level Toronto Center
03:40PM 48.5333 -85.0333 124° Southeast 470 541 33,000  Level Toronto Center
03:41PM 48.4667 -84.8833 124° Southeast 470 541 33,000  Level Toronto Center
03:42PM 48.3833 -84.7000 108° East 470 541 33,000  Level Toronto Center
03:43PM 48.3500 -84.5500 124° Southeast 470 541 33,000  Level Toronto Center
03:44PM 48.2667 -84.3667 112° Southeast 470 541 33,000  Level Toronto Center
03:45PM 48.2167 -84.1833 119° Southeast 470 541 33,000  Level Toronto Center
03:46PM 48.1500 -84.0000 124° Southeast 470 541 33,000  Level Toronto Center
03:47PM 48.0833 -83.8500 112° Southeast 480 552 33,000  Level Toronto Center
03:48PM 48.0333 -83.6667 118° Southeast 470 541 33,000  Level Toronto Center
03:49PM 47.9667 -83.4833 121° Southeast 470 541 33,000  Level Toronto Center
03:50PM 47.9000 -83.3167 114° Southeast 480 552 33,000  Level Toronto Center
03:51PM 47.8500 -83.1500 127° Southeast 470 541 33,000  Level Toronto Center
03:52PM 47.7667 -82.9833 118° Southeast 480 552 33,000  Level Toronto Center
03:53PM 47.7000 -82.8000 112° Southeast 480 552 33,000  Level Toronto Center
03:54PM 47.6500 -82.6167 123° Southeast 480 552 33,000  Level Toronto Center
03:55PM 47.5833 -82.4667 121° Southeast 480 552 33,000  Level Toronto Center
03:56PM 47.5167 -82.3000 118° Southeast 480 552 33,000  Level Toronto Center
03:57PM 47.4500 -82.1167 121° Southeast 480 552 33,000  Level Toronto Center
03:58PM 47.3833 -81.9500 118° Southeast 480 552 33,000  Level Toronto Center
03:59PM 47.3167 -81.7667 120° Southeast 480 552 33,000  Level Toronto Center
04:00PM 47.2500 -81.6000 123° Southeast 480 552 33,000 -60 Level Toronto Center
04:01PM 47.1833 -81.4500 118° Southeast 480 552 32,900 -780 Descending Toronto Center
04:02PM 47.1167 -81.2667 120° Southeast 480 552 31,500 -1,680 Descending Toronto Center
04:03PM 47.0500 -81.1000 123° Southeast 470 541 29,600 -2,100 Descending Toronto Center
04:04PM 46.9833 -80.9500 114° Southeast 460 529 27,300 -2,520 Descending Toronto Center
04:05PM 46.9333 -80.7833 126° Southeast 450 518 24,600 -2,580 Descending Toronto Center
04:06PM 46.8667 -80.6500 119° Southeast 430 495 22,200 -2,460 Descending Toronto Center
04:07PM 46.8167 -80.5167 116° Southeast 400 460 19,700 -2,340 Descending Toronto Center
04:08PM 46.7667 -80.3667 126° Southeast 390 449 17,600 -2,100 Descending Toronto Center
04:09PM 46.7000 -80.2333 122° Southeast 380 437 15,500 -2,100 Descending Toronto Center
04:10PM 46.6500 -80.1167 134° Southeast 360 414 13,400 -2,280 Descending Toronto Center
04:11PM 46.5833 -80.0167 126° Southeast 330 380 11,000 -2,160 Descending Toronto Center
04:12PM 46.5333 -79.9167 131° Southeast 320 368 9,100 -1,800 Descending Toronto Center
04:13PM 46.4833 -79.8333 139° Southeast 300 345 7,400 -1,800 Descending Toronto Center
04:14PM 46.4167 -79.7500 137° Southeast 280 322 5,600 -1,680 Descending Toronto Center
04:15PM 46.3667 -79.6833 145° Southeast 260 299 4,100 -1,320 Descending Toronto Center
04:16PM 46.3167 -79.6333 110° East 240 276 3,000 -600 Descending Toronto Center
04:17PM 46.3000 -79.5667 64° Northeast 210 242 3,000 -240 Level Toronto Center
04:18PM 46.3167 -79.5167 64° Northeast 170 196 2,600 -660 Descending Toronto Center
04:19PM 46.3333 -79.4667 64° Northeast 140 161 1,700 -780 Descending Toronto Center
04:20PM 46.3500 -79.4167 64° Northeast 130 150 1,100 -600 Descending Toronto Center